createdAt,value
2023-10-20T00:00:42.046Z,84.33
2023-10-20T00:03:10.000Z,85.00
2023-10-20T00:05:37.298Z,84.99
2023-10-20T00:08:04.290Z,84.76
2023-10-20T00:10:38.305Z,84.08
2023-10-20T00:13:06.120Z,84.63
2023-10-20T00:15:33.590Z,84.44
2023-10-20T00:18:47.722Z,84.56
2023-10-20T00:21:14.957Z,84.69
2023-10-20T00:23:41.434Z,84.51
2023-10-20T00:26:08.082Z,84.22
2023-10-20T00:28:34.609Z,84.26
2023-10-20T00:31:01.105Z,84.51
2023-10-20T00:33:27.601Z,84.50
2023-10-20T00:35:54.438Z,85.04
2023-10-20T00:38:20.967Z,85.25
2023-10-20T00:40:51.875Z,85.58
2023-10-20T00:43:18.693Z,85.77
2023-10-20T00:45:46.598Z,85.35
2023-10-20T00:48:14.384Z,85.38
2023-10-20T00:50:44.902Z,85.43
2023-10-20T00:53:12.500Z,85.09
2023-10-20T00:55:40.269Z,85.35
2023-10-20T00:58:08.149Z,85.64
2023-10-20T01:00:35.497Z,85.59
2023-10-20T01:03:02.177Z,85.26
2023-10-20T01:05:28.840Z,85.00
2023-10-20T01:07:55.494Z,85.32
2023-10-20T01:10:22.216Z,85.00
2023-10-20T01:12:48.778Z,85.08
2023-10-20T01:15:15.888Z,84.77
2023-10-20T01:17:42.678Z,84.91
2023-10-20T01:20:10.011Z,84.92
2023-10-20T01:22:36.830Z,85.06
2023-10-20T01:25:03.674Z,85.26
2023-10-20T01:27:30.201Z,85.31
2023-10-20T01:29:56.749Z,84.81
2023-10-20T01:32:23.261Z,84.81
2023-10-20T01:34:49.801Z,85.41
2023-10-20T01:37:16.400Z,85.34
2023-10-20T01:39:43.047Z,85.21
2023-10-20T01:42:09.706Z,85.09
2023-10-20T01:44:36.344Z,85.03
2023-10-20T01:47:03.057Z,85.03
2023-10-20T01:49:29.790Z,85.11
2023-10-20T01:51:56.330Z,85.13
2023-10-20T01:54:22.860Z,85.36
2023-10-20T01:56:49.625Z,85.34
2023-10-20T01:59:17.423Z,85.51
2023-10-20T02:01:43.989Z,85.26
2023-10-20T02:04:10.565Z,85.25
2023-10-20T02:06:37.226Z,85.07
2023-10-20T02:09:04.342Z,85.29
2023-10-20T02:11:30.870Z,85.28
2023-10-20T02:13:58.370Z,84.96
2023-10-20T02:16:25.563Z,84.94
2023-10-20T02:18:52.149Z,85.05
2023-10-20T02:21:18.670Z,85.24
2023-10-20T02:23:45.190Z,85.37
2023-10-20T02:26:12.346Z,85.77
2023-10-20T02:28:39.316Z,85.62
2023-10-20T02:31:21.271Z,85.31
2023-10-20T02:33:49.033Z,85.30
2023-10-20T02:36:20.462Z,85.00
2023-10-20T02:38:49.433Z,85.77
2023-10-20T02:41:17.054Z,86.36
2023-10-20T02:43:43.654Z,87.20
2023-10-20T02:46:10.881Z,85.76
2023-10-20T02:48:37.387Z,86.02
2023-10-20T02:51:14.765Z,85.40
2023-10-20T02:53:42.294Z,85.02
2023-10-20T02:56:20.098Z,84.22
2023-10-20T02:58:48.431Z,83.80
2023-10-20T03:01:17.374Z,84.03
2023-10-20T03:03:45.322Z,84.16
2023-10-20T03:06:12.798Z,84.21
2023-10-20T03:08:40.646Z,85.06
2023-10-20T03:11:09.556Z,84.78
2023-10-20T03:13:36.179Z,85.01
2023-10-20T03:16:02.716Z,85.18
2023-10-20T03:18:29.723Z,85.01
2023-10-20T03:21:00.169Z,85.71
2023-10-20T03:23:26.714Z,85.94
2023-10-20T03:25:53.352Z,85.55
2023-10-20T03:28:19.850Z,85.81
2023-10-20T03:33:17.177Z,86.12
2023-10-20T03:35:43.780Z,86.68
2023-10-20T03:38:10.484Z,86.66
2023-10-20T03:40:43.540Z,86.81
2023-10-20T03:43:11.103Z,86.77
2023-10-20T03:45:42.695Z,86.80
2023-10-20T03:48:10.664Z,87.39
2023-10-20T03:50:39.825Z,87.91
2023-10-20T03:53:07.336Z,88.08
2023-10-20T03:55:35.214Z,87.91
2023-10-20T03:58:02.427Z,87.85
2023-10-20T04:00:29.674Z,87.38
2023-10-20T04:02:57.711Z,86.91
2023-10-20T04:05:25.311Z,86.49
2023-10-20T04:07:51.879Z,86.23
2023-10-20T04:10:21.877Z,85.21
2023-10-20T04:12:49.382Z,84.91
2023-10-20T04:15:27.511Z,85.59
2023-10-20T04:17:55.731Z,85.06
2023-10-20T04:20:24.857Z,84.73
2023-10-20T04:22:51.627Z,84.45
2023-10-20T04:25:20.177Z,83.88
2023-10-20T04:27:51.042Z,84.05
2023-10-20T04:30:37.376Z,83.96
2023-10-20T04:33:24.329Z,83.50
2023-10-20T04:36:10.298Z,83.71
2023-10-20T04:38:55.694Z,80.41
2023-10-20T04:41:40.701Z,80.97
2023-10-20T04:44:16.073Z,82.01
2023-10-20T04:46:59.580Z,82.82
2023-10-20T04:49:49.272Z,83.62
2023-10-20T04:52:35.132Z,84.21
2023-10-20T04:55:22.228Z,84.64
2023-10-20T04:57:48.726Z,85.07
2023-10-20T05:00:32.869Z,85.22
2023-10-20T05:03:02.193Z,85.31
2023-10-20T05:05:28.873Z,85.79
2023-10-20T05:08:17.809Z,85.28
2023-10-20T05:10:46.086Z,85.66
2023-10-20T05:13:13.052Z,86.05
2023-10-20T05:15:40.113Z,86.13
2023-10-20T05:18:07.506Z,86.26
2023-10-20T05:20:38.031Z,85.90
2023-10-20T05:23:07.909Z,85.91
2023-10-20T05:25:34.583Z,86.78
2023-10-20T05:28:01.633Z,86.14
2023-10-20T05:30:28.637Z,86.47
2023-10-20T05:32:55.368Z,86.12
2023-10-20T05:35:22.032Z,86.16
2023-10-20T05:37:48.548Z,85.96
2023-10-20T05:40:15.081Z,86.29
2023-10-20T05:42:41.601Z,86.80
2023-10-20T05:45:11.721Z,86.79
2023-10-20T05:47:39.522Z,87.60
2023-10-20T05:50:07.544Z,87.48
2023-10-20T05:52:36.858Z,86.96
2023-10-20T05:55:04.740Z,87.30
2023-10-20T05:57:31.508Z,86.72
2023-10-20T06:00:01.008Z,86.78
2023-10-20T06:02:29.212Z,86.31
2023-10-20T06:04:56.121Z,86.08
2023-10-20T06:07:22.862Z,85.41
2023-10-20T06:09:50.794Z,84.82
2023-10-20T06:12:17.997Z,84.49
2023-10-20T06:14:44.825Z,84.58
2023-10-20T06:17:11.777Z,84.35
2023-10-20T06:19:38.399Z,84.23
2023-10-20T06:22:06.624Z,83.86
2023-10-20T06:24:34.469Z,83.82
2023-10-20T06:27:03.805Z,83.81
2023-10-20T06:29:34.096Z,84.91
2023-10-20T06:32:19.629Z,85.30
2023-10-20T06:34:47.617Z,85.41
2023-10-20T06:37:20.765Z,85.16
2023-10-20T06:39:47.251Z,84.66
2023-10-20T06:42:13.701Z,84.42
2023-10-20T06:44:40.238Z,83.74
2023-10-20T06:47:06.794Z,83.47
2023-10-20T06:49:33.663Z,83.49
2023-10-20T06:52:04.804Z,82.73
2023-10-20T06:54:32.043Z,82.77
2023-10-20T06:56:59.305Z,82.79
2023-10-20T06:59:26.016Z,82.36
2023-10-20T07:01:53.557Z,81.72
2023-10-20T07:04:20.538Z,81.53
2023-10-20T07:06:47.097Z,82.06
2023-10-20T07:09:13.620Z,81.59
2023-10-20T07:11:44.380Z,81.35
2023-10-20T07:14:15.345Z,81.26
2023-10-20T07:16:42.044Z,80.63
2023-10-20T07:19:09.063Z,81.09
2023-10-20T07:21:36.118Z,80.59
2023-10-20T07:24:05.609Z,80.52
2023-10-20T07:26:32.245Z,80.38
2023-10-20T07:28:58.788Z,79.93
2023-10-20T07:31:27.445Z,79.74
2023-10-20T07:33:54.253Z,79.44
2023-10-20T07:36:21.457Z,79.50
2023-10-20T07:38:48.039Z,79.45
2023-10-20T07:41:15.078Z,79.19
2023-10-20T07:43:42.308Z,78.40
2023-10-20T07:46:18.361Z,78.90
2023-10-20T07:48:45.518Z,78.63
2023-10-20T07:51:12.874Z,78.38
2023-10-20T07:53:39.605Z,78.09
2023-10-20T07:56:06.312Z,77.79
2023-10-20T07:58:34.050Z,77.56
2023-10-20T08:01:02.002Z,77.07
2023-10-20T08:03:28.938Z,76.94
2023-10-20T08:05:56.232Z,76.41
2023-10-20T08:08:23.179Z,75.77
2023-10-20T08:10:50.826Z,75.45
2023-10-20T08:13:18.023Z,75.58
2023-10-20T08:15:44.770Z,75.15
2023-10-20T08:18:11.981Z,74.59
2023-10-20T08:20:38.945Z,74.12
2023-10-20T08:23:05.849Z,74.08
2023-10-20T08:25:32.382Z,73.84
2023-10-20T08:27:59.125Z,73.67
2023-10-20T08:30:25.665Z,73.37
2023-10-20T08:32:52.237Z,72.57
2023-10-20T08:35:19.124Z,72.92
2023-10-20T08:37:45.580Z,72.38
2023-10-20T08:40:12.418Z,71.74
2023-10-20T08:42:40.306Z,71.44
2023-10-20T08:45:13.373Z,71.43
2023-10-20T08:47:43.152Z,71.01
2023-10-20T08:50:13.252Z,70.71
2023-10-20T08:52:40.852Z,70.47
2023-10-20T08:55:08.798Z,70.83
2023-10-20T08:57:35.643Z,70.46
2023-10-20T09:00:02.398Z,70.08
2023-10-20T09:02:39.458Z,69.87
2023-10-20T09:05:07.973Z,69.56
2023-10-20T09:07:35.176Z,69.60
2023-10-20T09:10:02.677Z,69.22
2023-10-20T09:12:31.183Z,68.67
2023-10-20T09:14:58.362Z,68.28
2023-10-20T09:17:25.469Z,68.19
2023-10-20T09:19:52.136Z,67.46
2023-10-20T09:22:30.385Z,66.89
2023-10-20T09:24:57.829Z,66.26
2023-10-20T09:27:25.886Z,65.36
2023-10-20T09:29:53.985Z,64.74
2023-10-20T09:32:20.832Z,64.46
2023-10-20T09:34:47.995Z,63.42
2023-10-20T09:37:16.618Z,63.32
2023-10-20T09:39:47.501Z,62.28
2023-10-20T09:42:15.290Z,61.02
2023-10-20T09:44:52.300Z,60.43
2023-10-20T09:47:40.831Z,59.57
2023-10-20T09:50:07.538Z,58.93
2023-10-20T09:52:34.687Z,59.43
2023-10-20T09:55:02.595Z,59.65
2023-10-20T09:57:29.705Z,59.06
2023-10-20T09:59:56.337Z,57.97
2023-10-20T10:02:30.715Z,57.98
2023-10-20T10:04:58.219Z,57.75
2023-10-20T10:07:34.321Z,57.41
2023-10-20T10:10:01.681Z,57.56
2023-10-20T10:12:30.122Z,56.72
2023-10-20T10:15:02.944Z,56.17
2023-10-20T10:17:29.971Z,55.87
2023-10-20T10:19:57.448Z,55.59
2023-10-20T10:22:29.220Z,55.34
2023-10-20T10:24:58.093Z,54.88
2023-10-20T10:27:31.530Z,54.85
2023-10-20T10:30:06.657Z,54.90
2023-10-20T10:32:35.632Z,55.11
2023-10-20T10:35:05.141Z,54.08
2023-10-20T10:37:34.568Z,53.35
2023-10-20T10:40:08.612Z,53.63
2023-10-20T10:42:54.035Z,53.29
2023-10-20T10:45:36.793Z,53.49
2023-10-20T10:48:11.297Z,52.57
2023-10-20T10:50:39.983Z,52.99
2023-10-20T10:53:06.712Z,52.87
2023-10-20T10:55:35.481Z,51.83
2023-10-20T10:58:03.562Z,52.01
2023-10-20T11:00:30.482Z,52.11
2023-10-20T11:02:58.438Z,52.16
2023-10-20T11:05:26.202Z,52.33
2023-10-20T11:08:06.574Z,52.04
2023-10-20T11:10:36.009Z,51.95
2023-10-20T11:13:07.701Z,51.80
2023-10-20T11:15:34.978Z,50.82
2023-10-20T11:18:03.005Z,50.80
2023-10-20T11:20:34.396Z,50.45
2023-10-20T11:23:02.095Z,50.59
2023-10-20T11:25:30.856Z,50.97
2023-10-20T11:27:58.292Z,50.15
2023-10-20T11:30:29.544Z,50.40
2023-10-20T11:32:57.254Z,43.35
2023-10-20T11:35:27.976Z,41.38
2023-10-20T11:37:55.378Z,39.91
2023-10-20T11:40:22.776Z,40.13
2023-10-20T11:42:49.649Z,38.92
2023-10-20T11:45:17.472Z,39.39
2023-10-20T11:47:44.048Z,39.53
2023-10-20T11:50:20.083Z,40.01
2023-10-20T11:52:46.790Z,38.98
2023-10-20T11:55:13.604Z,39.63
2023-10-20T11:57:40.809Z,38.05
2023-10-20T12:00:08.902Z,37.81
2023-10-20T12:02:35.668Z,38.46
2023-10-20T12:05:02.625Z,37.68
2023-10-20T12:07:29.315Z,38.75
2023-10-20T12:09:55.912Z,38.40
2023-10-20T12:12:22.482Z,37.89
2023-10-20T12:14:49.223Z,38.41
2023-10-20T12:17:16.220Z,37.98
2023-10-20T12:19:42.928Z,37.84
2023-10-20T12:22:12.235Z,38.24
2023-10-20T12:24:38.807Z,38.31
2023-10-20T12:27:05.286Z,39.08
2023-10-20T12:29:32.130Z,39.25
2023-10-20T12:32:00.094Z,38.89
2023-10-20T12:34:27.587Z,39.36
2023-10-20T12:36:54.211Z,38.76
2023-10-20T12:39:21.745Z,39.28
2023-10-20T12:41:49.195Z,39.49
2023-10-20T12:44:15.780Z,40.19
2023-10-20T12:46:42.362Z,39.67
2023-10-20T12:49:08.941Z,39.99
2023-10-20T12:51:35.802Z,39.75
2023-10-20T12:54:03.282Z,40.47
2023-10-20T12:56:29.924Z,40.35
2023-10-20T12:58:56.493Z,40.73
2023-10-20T13:01:23.105Z,40.35
2023-10-20T13:03:50.092Z,40.81
2023-10-20T13:06:16.964Z,41.09
2023-10-20T13:08:46.869Z,40.79
2023-10-20T13:11:14.036Z,41.41
2023-10-20T13:13:41.580Z,41.59
2023-10-20T13:16:09.122Z,41.86
2023-10-20T13:18:37.005Z,42.59
2023-10-20T13:21:06.506Z,42.45
2023-10-20T13:23:33.717Z,43.41
2023-10-20T13:26:06.550Z,43.49
2023-10-20T13:28:33.723Z,43.22
2023-10-20T13:31:12.378Z,43.36
2023-10-20T13:33:40.979Z,43.87
2023-10-20T13:36:11.258Z,44.04
2023-10-20T13:38:39.029Z,44.32
2023-10-20T13:41:06.354Z,44.73
2023-10-20T13:43:33.317Z,45.46
2023-10-20T13:46:00.177Z,45.48
2023-10-20T13:48:27.327Z,45.63
2023-10-20T13:50:54.453Z,45.57
2023-10-20T13:53:21.177Z,45.74
2023-10-20T13:55:48.826Z,45.88
2023-10-20T13:58:15.828Z,46.09
2023-10-20T14:00:42.379Z,46.12
2023-10-20T14:03:08.984Z,46.15
2023-10-20T14:05:36.243Z,46.39
2023-10-20T14:08:04.133Z,46.33
2023-10-20T14:10:32.193Z,46.86
2023-10-20T14:12:58.963Z,46.70
2023-10-20T14:15:25.516Z,47.10
2023-10-20T14:17:52.096Z,47.77
2023-10-20T14:20:19.348Z,47.49
2023-10-20T14:22:45.974Z,47.47
2023-10-20T14:25:12.605Z,47.55
2023-10-20T14:27:40.648Z,47.58
2023-10-20T14:30:08.228Z,47.64
2023-10-20T14:32:35.236Z,47.29
2023-10-20T14:35:02.079Z,47.83
2023-10-20T14:37:28.596Z,47.42
2023-10-20T14:39:57.100Z,47.61
2023-10-20T14:42:23.713Z,47.90
2023-10-20T14:44:51.609Z,47.71
2023-10-20T14:47:18.618Z,47.81
2023-10-20T14:49:45.272Z,48.01
2023-10-20T14:52:13.662Z,48.58
2023-10-20T14:54:42.181Z,47.99
2023-10-20T14:57:10.186Z,48.35
2023-10-20T14:59:37.297Z,48.41
2023-10-20T15:02:05.128Z,48.71
2023-10-20T15:04:34.043Z,48.42
2023-10-20T15:07:00.790Z,49.27
2023-10-20T15:09:28.136Z,49.56
2023-10-20T15:11:54.719Z,49.38
2023-10-20T15:14:21.304Z,49.26
2023-10-20T15:16:47.755Z,49.26
2023-10-20T15:19:14.889Z,49.11
2023-10-20T15:21:41.446Z,48.80
2023-10-20T15:24:10.720Z,48.82
2023-10-20T15:26:37.585Z,49.35
2023-10-20T15:29:05.094Z,49.12
2023-10-20T15:31:32.185Z,49.33
2023-10-20T15:33:59.653Z,49.08
2023-10-20T15:36:28.722Z,49.32
2023-10-20T15:38:55.515Z,49.29
2023-10-20T15:41:23.001Z,49.75
2023-10-20T15:43:49.763Z,49.39
2023-10-20T15:46:16.469Z,49.54
2023-10-20T15:48:43.239Z,49.45
2023-10-20T15:51:09.909Z,49.65
2023-10-20T15:53:36.547Z,49.23
2023-10-20T15:56:03.252Z,49.10
2023-10-20T15:58:31.577Z,49.33
2023-10-20T16:01:01.456Z,49.49
2023-10-20T16:03:28.348Z,49.25
2023-10-20T16:05:55.288Z,49.26
2023-10-20T16:08:21.970Z,49.33
2023-10-20T16:10:49.143Z,49.31
2023-10-20T16:13:15.796Z,49.29
2023-10-20T16:15:42.305Z,49.46
2023-10-20T16:18:09.649Z,49.37
2023-10-20T16:20:36.335Z,49.50
2023-10-20T16:23:03.947Z,49.68
2023-10-20T16:25:30.718Z,49.49
2023-10-20T16:27:59.249Z,49.50
2023-10-20T16:30:25.694Z,49.49
2023-10-20T16:32:52.246Z,49.27
2023-10-20T16:35:18.874Z,49.22
2023-10-20T16:37:45.388Z,49.14
2023-10-20T16:40:13.008Z,48.91
2023-10-20T16:42:39.557Z,49.03
2023-10-20T16:45:11.096Z,48.61
2023-10-20T16:47:39.075Z,48.58
2023-10-20T16:50:07.123Z,48.27
2023-10-20T16:52:35.609Z,47.58
2023-10-20T16:55:02.123Z,47.40
2023-10-20T16:57:28.605Z,46.87
2023-10-20T16:59:55.140Z,46.90
2023-10-20T17:02:21.806Z,46.91
2023-10-20T17:04:48.330Z,46.81
2023-10-20T17:07:14.813Z,46.59
2023-10-20T17:09:41.303Z,46.25
2023-10-20T17:12:08.450Z,46.78
2023-10-20T17:14:35.086Z,46.33
2023-10-20T17:17:01.645Z,46.66
2023-10-20T17:19:28.145Z,46.60
2023-10-20T17:21:54.684Z,46.51
2023-10-20T17:24:21.202Z,46.69
2023-10-20T17:26:47.686Z,46.48
2023-10-20T17:29:14.256Z,46.68
2023-10-20T17:31:40.778Z,46.83
2023-10-20T17:34:07.264Z,47.17
2023-10-20T17:36:33.745Z,47.01
2023-10-20T17:39:00.986Z,46.86
2023-10-20T17:41:27.704Z,46.67
2023-10-20T17:43:54.218Z,46.88
2023-10-20T17:46:20.830Z,47.27
2023-10-20T17:48:47.544Z,47.36
2023-10-20T17:51:14.140Z,47.31
2023-10-20T17:53:40.677Z,46.98
2023-10-20T17:56:07.399Z,47.26
2023-10-20T17:58:34.365Z,47.14
2023-10-20T18:01:08.611Z,47.32
2023-10-20T18:03:43.704Z,47.53
2023-10-20T18:06:16.840Z,47.27
2023-10-20T18:08:47.381Z,47.49
2023-10-20T18:11:15.631Z,47.68
2023-10-20T18:13:44.406Z,48.06
2023-10-20T18:16:16.290Z,48.09
2023-10-20T18:18:45.667Z,48.20
2023-10-20T18:21:13.243Z,48.04
2023-10-20T18:23:40.708Z,48.52
2023-10-20T18:26:11.199Z,48.40
2023-10-20T18:28:38.252Z,48.66
2023-10-20T18:31:15.375Z,48.79
2023-10-20T18:33:42.624Z,49.08
2023-10-20T18:36:09.676Z,49.35
2023-10-20T18:38:36.258Z,49.19
2023-10-20T18:41:04.184Z,49.06
2023-10-20T18:43:31.031Z,49.20
2023-10-20T18:46:00.947Z,49.29
2023-10-20T18:48:28.355Z,49.33
2023-10-20T18:51:06.422Z,49.48
2023-10-20T18:53:33.529Z,49.78
2023-10-20T18:56:00.169Z,49.42
2023-10-20T18:58:26.782Z,49.53
2023-10-20T19:00:54.156Z,49.07
2023-10-20T19:03:21.265Z,49.25
2023-10-20T19:05:51.083Z,49.06
2023-10-20T19:08:18.084Z,49.34
2023-10-20T19:10:44.939Z,48.86
2023-10-20T19:13:11.587Z,49.32
2023-10-20T19:15:38.168Z,49.47
2023-10-20T19:18:05.226Z,49.10
2023-10-20T19:20:31.855Z,49.52
2023-10-20T19:22:58.392Z,49.47
2023-10-20T19:25:25.005Z,49.54
2023-10-20T19:27:51.666Z,49.29
2023-10-20T19:30:18.169Z,49.51
2023-10-20T19:32:44.810Z,49.46
2023-10-20T19:35:11.553Z,49.98
2023-10-20T19:37:38.459Z,49.90
2023-10-20T19:40:07.044Z,50.08
2023-10-20T19:42:33.755Z,50.20
2023-10-20T19:45:02.199Z,50.13
2023-10-20T19:47:28.977Z,50.77
2023-10-20T19:49:55.565Z,50.67
2023-10-20T19:52:22.088Z,50.31
2023-10-20T19:54:48.630Z,50.71
2023-10-20T19:57:15.125Z,50.80
2023-10-20T19:59:41.635Z,51.08
2023-10-20T20:02:08.917Z,51.11
2023-10-20T20:04:35.727Z,50.96
2023-10-20T20:07:02.311Z,51.32
2023-10-20T20:09:29.719Z,51.28
2023-10-20T20:11:57.156Z,51.55
2023-10-20T20:14:23.838Z,51.74
2023-10-20T20:16:50.643Z,51.88
2023-10-20T20:19:17.322Z,52.26
2023-10-20T20:21:43.927Z,52.19
2023-10-20T20:24:10.609Z,52.65
2023-10-20T20:26:37.314Z,52.76
2023-10-20T20:29:05.564Z,53.01
2023-10-20T20:31:32.608Z,53.25
2023-10-20T20:33:59.336Z,53.70
2023-10-20T20:36:25.862Z,53.84
2023-10-20T20:38:52.349Z,54.20
2023-10-20T20:41:18.853Z,54.27
2023-10-20T20:43:45.290Z,54.60
2023-10-20T20:46:11.887Z,54.76
2023-10-20T20:48:38.499Z,55.17
2023-10-20T20:51:09.357Z,55.08
2023-10-20T20:53:36.000Z,55.66
2023-10-20T20:56:02.467Z,55.64
2023-10-20T20:58:28.972Z,55.82
2023-10-20T21:00:56.351Z,56.21
2023-10-20T21:03:23.180Z,56.05
2023-10-20T21:05:59.239Z,56.60
2023-10-20T21:08:26.060Z,56.55
2023-10-20T21:10:52.574Z,56.90
2023-10-20T21:13:19.099Z,57.21
2023-10-20T21:15:45.706Z,57.33
2023-10-20T21:18:12.361Z,57.74
2023-10-20T21:20:39.317Z,57.89
2023-10-20T21:23:05.968Z,57.99
2023-10-20T21:25:39.140Z,58.49
2023-10-20T21:28:06.470Z,58.95
2023-10-20T21:30:36.615Z,59.39
2023-10-20T21:33:04.123Z,59.89
2023-10-20T21:35:31.076Z,60.52
2023-10-20T21:37:57.588Z,60.74
2023-10-20T21:40:24.069Z,60.90
2023-10-20T21:42:50.509Z,61.48
2023-10-20T21:45:17.123Z,61.52
2023-10-20T21:47:43.700Z,61.33
2023-10-20T21:50:10.540Z,62.16
2023-10-20T21:52:37.038Z,62.06
2023-10-20T21:55:05.026Z,62.21
2023-10-20T21:57:31.578Z,62.55
2023-10-20T21:59:58.144Z,63.09
2023-10-20T22:02:24.730Z,63.39
2023-10-20T22:04:54.099Z,63.23
2023-10-20T22:07:20.630Z,63.41
2023-10-20T22:09:53.864Z,63.72
2023-10-20T22:12:21.565Z,63.46
2023-10-20T22:14:48.173Z,63.78
2023-10-20T22:17:14.721Z,64.24
2023-10-20T22:19:41.221Z,64.43
2023-10-20T22:22:08.563Z,65.09
2023-10-20T22:24:35.062Z,65.14
2023-10-20T22:27:01.622Z,65.67
2023-10-20T22:29:28.349Z,65.72
2023-10-20T22:31:54.853Z,66.29
2023-10-20T22:34:21.382Z,66.63
2023-10-20T22:36:48.011Z,66.56
2023-10-20T22:39:16.080Z,66.85
2023-10-20T22:41:42.742Z,66.80
2023-10-20T22:44:09.813Z,66.74
2023-10-20T22:46:36.392Z,66.37
2023-10-20T22:49:03.119Z,66.33
2023-10-20T22:51:29.717Z,66.30
2023-10-20T22:53:56.373Z,66.29
2023-10-20T22:56:23.875Z,66.48
2023-10-20T22:58:50.378Z,66.35
2023-10-20T23:01:17.014Z,66.17
2023-10-20T23:03:43.712Z,67.04
2023-10-20T23:06:10.411Z,67.31
2023-10-20T23:08:36.964Z,67.11
2023-10-20T23:11:04.502Z,66.92
2023-10-20T23:13:31.024Z,66.91
2023-10-20T23:15:57.663Z,66.58
2023-10-20T23:18:24.262Z,66.62
2023-10-20T23:20:55.477Z,67.04
2023-10-20T23:23:22.329Z,66.48
2023-10-20T23:25:48.848Z,66.65
2023-10-20T23:28:15.396Z,66.64
2023-10-20T23:30:41.995Z,66.98
2023-10-20T23:33:08.679Z,67.17
2023-10-20T23:35:35.784Z,67.41
2023-10-20T23:38:02.309Z,67.47
2023-10-20T23:40:28.856Z,67.57
2023-10-20T23:42:55.481Z,67.52
2023-10-20T23:45:22.068Z,67.55
2023-10-20T23:47:48.654Z,67.20
2023-10-20T23:50:15.136Z,66.84
2023-10-20T23:52:41.636Z,66.74
2023-10-20T23:55:08.430Z,66.64
2023-10-20T23:57:34.902Z,66.62
